Brandon, MS

6:01 PM CDT on August 27, 2015 (GMT -0500)
Raintree Place | | Change Station
CLOSE
Current Station
Personal Weather Station
Location: Brandon, MS
Elevation: 410 ft
Nearby Weather Stations

Elev 410 ft 32.26 °N, 89.98 °W | Updated 4 minutes ago

Clear
Clear
92.7 °F
Feels Like 92 °F
N
3.2
Wind Variable Wind from ESE

Today
High -- | Low -- °F
--% Chance of Precip.
Yesterday
High -- | Low -- °F
Precip. -- in
6:31 AM 7:30 PM
Waxing Gibbous, 95% visible
Pressure 29.98 in
Visibility 10.0 miles
Clouds Clear
Heat Index 92 °F
Dew Point 59 °F
Humidity 33%
Rainfall 0.00 in
Snow Depth Not available.
UV 1 out of 12
Pollen 8.20 out of 12
Air Quality Not available.
Flu Activity Not available.
METAR KJAN 272254Z 36009KT 10SM CLR 31/12 A2999 RMK AO2 SLP152 T03060122
Pressure 29.98 in
Visibility 10.0 miles
Clouds Clear
Heat Index 92 °F
Dew Point 59 °F
Humidity 33%
Rainfall 0.00 in
Snow Depth Not available.
UV 1 out of 12
Pollen 8.20 out of 12
Air Quality Not available.
Flu Activity Not available.
METAR KJAN 272254Z 36009KT 10SM CLR 31/12 A2999 RMK AO2 SLP152 T03060122

10-Day Weather Forecast

×

Almanac

Astronomy

Aug. 27, 2015 Rise Set
Actual Time
Civil Twilight
Nautical Twilight
Astronomical Twilight
Moon
Length of Visible Light
Length of Day
Tomorrow will be .
, % of the Moon is Illuminated

Today's Extremes

State Highs State Lows

Community

WunderPhotos

Upload Photos

1,850,256 photos uploaded!

WunderBlogs® & News

Nearby

Air Quality

  Air Quality AQ Index Pollutant
Not available.

Snow Depth

Station Depth Elevation

Earthquake Activity

City Distance Mag. Time & Date
Minimum magnitude displayed is 2.5.

Coastal Water Temperatures

Place Temperature

Stations

Nearby Weather Stations

Station Location Temp. Windchill Dew Point Humidity Wind Precip. Elev Updated Type